Time;durP1;ratioP1;P1;durP2;ratioP2;P2;SDS_P1;SDS_P2;PMS_P1;PMS_P2;Temp;Humidity;BMP_temperature;BMP_pressure;BME280_temperature;BME280_humidity;BME280_pressure;Samples;Min_cycle;Max_cycle;Signal;HPM_P1;HPM_P2
2023/02/13 00:02:01;;;;;;;10.77;9.73;;;9.10;99.90;;;;;;5033826;28;20168;-66
2023/02/13 00:04:27;;;;;;;12.97;8.87;;;9.10;99.90;;;;;;5034489;28;20192;-65
2023/02/13 00:06:52;;;;;;;10.00;9.00;;;9.10;99.90;;;;;;5034317;28;20262;-63
2023/02/13 00:09:18;;;;;;;11.90;8.83;;;9.10;99.90;;;;;;5034168;28;20163;-66
2023/02/13 00:11:44;;;;;;;9.80;8.90;;;9.10;99.90;;;;;;5032802;28;20215;-66
2023/02/13 00:14:09;;;;;;;12.93;9.17;;;9.10;99.90;;;;;;5034486;28;20183;-65
2023/02/13 00:16:35;;;;;;;12.33;11.13;;;9.10;99.90;;;;;;5034464;28;20195;-65
2023/02/13 00:19:00;;;;;;;11.60;9.97;;;9.10;99.90;;;;;;5034347;28;20172;-64
2023/02/13 00:21:26;;;;;;;11.43;10.40;;;9.10;99.90;;;;;;5033939;28;20688;-64
2023/02/13 00:23:52;;;;;;;10.77;9.30;;;9.00;99.90;;;;;;5033980;28;20215;-66
2023/02/13 00:26:17;;;;;;;12.43;10.00;;;9.00;99.90;;;;;;5034462;28;20188;-66
2023/02/13 00:28:44;;;;;;;11.60;9.33;;;9.10;99.90;;;;;;5034112;28;20199;-65
2023/02/13 00:31:14;;;;;;;10.40;9.30;;;9.00;99.90;;;;;;5033864;28;20245;-65
2023/02/13 00:33:40;;;;;;;11.07;9.80;;;9.00;99.90;;;;;;5033619;28;20235;-65
2023/02/13 00:36:18;;;;;;;11.80;10.30;;;9.10;99.90;;;;;;5033964;28;20167;-66
2023/02/13 00:38:44;;;;;;;13.83;9.77;;;9.10;99.90;;;;;;5034104;28;20176;-65
2023/02/13 00:41:11;;;;;;;10.87;9.63;;;9.10;99.90;;;;;;5033647;28;20167;-65
2023/02/13 00:43:37;;;;;;;10.83;9.73;;;9.00;99.90;;;;;;5033331;28;20658;-65
2023/02/13 00:46:03;;;;;;;12.73;10.03;;;9.00;99.90;;;;;;5033877;28;20328;-65
2023/02/13 00:48:31;;;;;;;10.77;9.40;;;9.00;99.90;;;;;;5033550;28;20176;-65
2023/02/13 00:50:57;;;;;;;14.47;9.73;;;9.00;99.90;;;;;;5033294;28;20673;-65
2023/02/13 00:53:24;;;;;;;13.90;9.37;;;9.00;99.90;;;;;;5033564;28;20178;-65
2023/02/13 00:55:50;;;;;;;11.17;9.70;;;9.00;99.90;;;;;;5033170;28;20192;-65
2023/02/13 00:58:17;;;;;;;13.30;8.80;;;9.00;99.90;;;;;;5033490;28;20164;-65
2023/02/13 01:00:43;;;;;;;11.43;9.80;;;9.00;99.90;;;;;;5032607;28;20586;-65
2023/02/13 01:03:09;;;;;;;15.20;10.03;;;9.00;99.90;;;;;;5033420;28;20178;-65
2023/02/13 01:05:35;;;;;;;10.23;9.20;;;9.00;99.90;;;;;;5033229;28;20195;-65
2023/02/13 01:08:01;;;;;;;11.23;8.70;;;9.00;99.90;;;;;;5033458;28;20171;-65
2023/02/13 01:10:27;;;;;;;13.00;10.03;;;9.00;99.90;;;;;;5032793;28;20203;-65
2023/02/13 01:12:52;;;;;;;12.27;10.13;;;9.00;99.90;;;;;;5033143;28;20660;-65
2023/02/13 01:15:18;;;;;;;11.30;10.20;;;9.00;99.90;;;;;;5033049;28;20198;-64
2023/02/13 01:17:44;;;;;;;10.73;9.53;;;9.00;99.90;;;;;;5033108;28;20186;-64
2023/02/13 01:20:11;;;;;;;13.33;10.47;;;9.00;99.90;;;;;;5032941;28;20661;-64
2023/02/13 01:22:37;;;;;;;12.87;10.23;;;9.00;99.90;;;;;;5032677;28;20588;-64
2023/02/13 01:25:03;;;;;;;10.10;9.27;;;9.00;99.90;;;;;;5032892;28;20195;-64
2023/02/13 01:27:28;;;;;;;11.50;10.27;;;9.00;99.90;;;;;;5032931;28;20174;-64
2023/02/13 01:29:54;;;;;;;11.30;10.17;;;9.00;99.90;;;;;;5032528;28;20199;-64
2023/02/13 01:32:20;;;;;;;11.90;9.50;;;9.00;99.90;;;;;;5032897;28;20206;-63
2023/02/13 01:34:46;;;;;;;10.37;9.27;;;9.00;99.90;;;;;;5032598;28;20196;-64
2023/02/13 01:37:12;;;;;;;11.57;9.13;;;9.00;99.90;;;;;;5032874;28;20201;-64
2023/02/13 01:39:38;;;;;;;11.70;9.97;;;9.00;99.90;;;;;;5032121;28;20218;-64
2023/02/13 01:42:04;;;;;;;12.07;9.43;;;9.00;99.90;;;;;;5032753;28;20171;-64
2023/02/13 01:44:49;;;;;;;9.67;8.97;;;9.00;99.90;;;;;;5061139;22;20229;-64
2023/02/13 01:47:22;;;;;;;10.10;9.10;;;9.00;99.90;;;;;;5052545;28;20171;-64
2023/02/13 01:49:49;;;;;;;11.40;9.07;;;9.00;99.90;;;;;;5051868;28;20532;-64
2023/02/13 01:52:16;;;;;;;10.80;9.70;;;8.90;99.90;;;;;;5052415;28;20163;-64
2023/02/13 01:54:42;;;;;;;10.50;9.50;;;8.90;99.90;;;;;;5052252;28;20187;-64
2023/02/13 01:57:17;;;;;;;11.00;9.90;;;8.90;99.90;;;;;;5052376;28;20543;-64
2023/02/13 01:59:51;;;;;;;12.90;11.27;;;8.90;99.90;;;;;;5051620;28;20171;-63
2023/02/13 02:02:19;;;;;;;11.67;10.67;;;8.90;99.90;;;;;;5052304;28;20166;-63
2023/02/13 02:04:47;;;;;;;11.10;10.10;;;8.90;99.90;;;;;;5051972;28;20191;-64
2023/02/13 02:07:28;;;;;;;13.60;10.93;;;8.90;99.90;;;;;;5052181;28;20178;-64
2023/02/13 02:09:58;;;;;;;10.87;9.80;;;8.90;99.90;;;;;;5051395;28;20217;-63
2023/02/13 02:12:25;;;;;;;10.87;9.97;;;8.90;99.90;;;;;;5052124;28;20171;-64
2023/02/13 02:14:54;;;;;;;11.53;10.30;;;8.90;99.90;;;;;;5052090;28;20194;-65
2023/02/13 02:17:22;;;;;;;12.10;10.10;;;8.90;99.90;;;;;;5051983;28;20637;-64
2023/02/13 02:20:15;;;;;;;11.20;10.10;;;8.90;99.90;;;;;;5051545;28;20175;-64
2023/02/13 02:23:02;;;;;;;12.43;10.33;;;8.90;99.90;;;;;;5051920;28;20173;-64
2023/02/13 02:25:54;;;;;;;11.83;10.87;;;8.90;99.90;;;;;;5051747;28;20283;-64
2023/02/13 02:28:51;;;;;;;13.17;10.57;;;8.80;99.90;;;;;;5051915;28;20186;-64
2023/02/13 02:31:25;;;;;;;11.90;10.90;;;8.90;99.90;;;;;;5051503;28;20194;-64
2023/02/13 02:34:06;;;;;;;11.90;10.77;;;8.90;99.90;;;;;;5051181;28;20167;-64
2023/02/13 02:36:54;;;;;;;11.77;10.40;;;8.90;99.90;;;;;;5051563;28;20267;-64
2023/02/13 02:39:41;;;;;;;13.27;11.97;;;8.90;99.90;;;;;;5051482;28;20268;-64
2023/02/13 02:42:37;;;;;;;11.90;10.80;;;8.90;99.90;;;;;;5051751;28;20581;-64
2023/02/13 02:45:15;;;;;;;11.47;10.53;;;8.80;1.00;;;;;;5051466;28;20209;-64
2023/02/13 02:51:18;;;;;;;10.50;9.60;;;8.80;1.00;;;;;;5051207;28;20201;-64
2023/02/13 02:53:56;;;;;;;10.67;9.70;;;8.80;1.00;;;;;;5051393;28;20690;-64
2023/02/13 02:56:37;;;;;;;10.03;9.30;;;8.80;1.00;;;;;;5051541;28;20175;-64
2023/02/13 03:07:34;;;;;;;10.23;9.40;;;8.70;1.00;;;;;;5051569;28;20181;-64
2023/02/13 03:13:22;;;;;;;10.23;9.23;;;8.60;1.00;;;;;;5051268;28;20174;-64
2023/02/13 03:24:53;;;;;;;12.17;11.17;;;8.40;1.00;;;;;;5051231;28;20635;-64
2023/02/13 03:30:44;;;;;;;10.77;9.70;;;8.40;1.00;;;;;;5051054;28;20293;-64
2023/02/13 03:33:22;;;;;;;11.73;10.83;;;8.30;1.00;;;;;;5051133;28;20670;-64
2023/02/13 03:39:03;;;;;;;11.00;9.50;;;8.30;1.00;;;;;;5051295;28;20178;-64
2023/02/13 03:41:42;;;;;;;11.03;9.93;;;8.30;1.00;;;;;;5043342;28;20183;-64
2023/02/13 03:44:30;;;;;;;10.53;9.43;;;8.30;1.00;;;;;;5050831;28;20539;-64
2023/02/13 03:46:59;;;;;;;10.47;9.47;;;8.20;1.00;;;;;;5053518;28;20658;-64
2023/02/13 03:52:38;;;;;;;10.50;9.70;;;8.20;1.00;;;;;;5054662;28;20180;-64
2023/02/13 04:01:08;;;;;;;11.00;10.07;;;8.10;1.00;;;;;;5053379;28;20223;-64
2023/02/13 04:03:43;;;;;;;10.90;9.90;;;8.10;1.00;;;;;;5054291;28;20175;-64
2023/02/13 04:06:14;;;;;;;11.77;10.73;;;8.00;1.00;;;;;;5054481;28;20198;-63
2023/02/13 04:08:40;;;;;;;12.03;10.90;;;8.00;1.00;;;;;;5054394;28;20213;-63
2023/02/13 04:11:08;;;;;;;12.43;11.27;;;8.00;1.00;;;;;;5054035;28;20205;-63
2023/02/13 04:13:40;;;;;;;11.50;10.00;;;8.00;1.00;;;;;;5053663;28;20167;-65
2023/02/13 04:16:15;;;;;;;11.00;9.90;;;8.00;1.00;;;;;;5053117;28;20561;-63
2023/02/13 04:18:42;;;;;;;11.70;10.50;;;7.90;1.00;;;;;;5054212;28;20167;-63
2023/02/13 04:21:08;;;;;;;11.77;10.53;;;7.90;1.00;;;;;;5053790;28;20171;-63
2023/02/13 04:23:34;;;;;;;12.83;11.70;;;7.90;1.00;;;;;;5052748;28;20205;-64
2023/02/13 04:26:07;;;;;;;11.87;9.73;;;7.90;1.00;;;;;;5053796;28;20203;-64
2023/02/13 04:28:33;;;;;;;11.10;9.97;;;7.90;1.00;;;;;;5053870;28;20185;-63
2023/02/13 04:30:59;;;;;;;12.57;11.53;;;7.80;1.00;;;;;;5053585;28;20207;-64
2023/02/13 04:33:24;;;;;;;12.47;11.17;;;7.80;1.00;;;;;;5054016;28;20179;-64
2023/02/13 04:35:50;;;;;;;11.60;10.60;;;7.80;1.00;;;;;;5053604;28;20277;-63
2023/02/13 04:38:15;;;;;;;12.33;11.13;;;7.80;1.00;;;;;;5053889;28;20174;-64
2023/02/13 04:40:41;;;;;;;10.83;9.90;;;7.70;1.00;;;;;;5053442;28;20163;-64
2023/02/13 04:43:07;;;;;;;13.57;12.17;;;7.70;1.00;;;;;;5053702;28;20178;-64
2023/02/13 04:45:32;;;;;;;12.90;11.43;;;7.70;1.00;;;;;;5053406;28;20210;-64
2023/02/13 04:47:58;;;;;;;13.50;11.30;;;7.60;1.00;;;;;;5053459;28;20190;-64
2023/02/13 04:50:24;;;;;;;11.33;10.33;;;7.60;1.00;;;;;;5053246;28;20575;-64
2023/02/13 04:52:55;;;;;;;12.27;11.20;;;7.60;1.00;;;;;;5053388;28;20170;-64
2023/02/13 04:55:25;;;;;;;12.80;11.37;;;7.60;1.00;;;;;;5053465;28;20187;-63
2023/02/13 04:57:54;;;;;;;12.57;11.43;;;7.50;1.00;;;;;;5052417;28;20544;-64
2023/02/13 05:00:21;;;;;;;12.13;10.97;;;7.50;1.00;;;;;;5052459;28;20640;-64
2023/02/13 05:02:47;;;;;;;12.53;10.93;;;7.50;1.00;;;;;;5053158;28;20178;-64
2023/02/13 05:05:13;;;;;;;13.37;11.10;;;7.40;1.00;;;;;;5053154;28;20191;-64
2023/02/13 05:07:39;;;;;;;12.10;11.07;;;7.40;1.00;;;;;;5053144;28;20304;-63
2023/02/13 05:10:05;;;;;;;12.40;11.33;;;7.40;1.00;;;;;;5052721;28;20233;-64
2023/02/13 05:12:31;;;;;;;11.83;10.63;;;7.30;1.00;;;;;;5053047;28;20163;-64
2023/02/13 05:14:57;;;;;;;12.33;11.13;;;7.30;1.00;;;;;;5053022;28;20683;-64
2023/02/13 05:17:22;;;;;;;11.37;10.27;;;7.20;1.00;;;;;;5053104;28;20246;-63
2023/02/13 05:19:48;;;;;;;11.60;10.50;;;7.20;1.00;;;;;;5052436;28;20802;-64
2023/02/13 05:24:57;;;;;;;12.93;11.20;;;6.90;1.00;;;;;;5052813;28;20282;-64
2023/02/13 05:27:23;;;;;;;16.40;13.10;;;6.80;1.00;;;;;;5053174;28;20221;-64
2023/02/13 05:29:49;;;;;;;13.53;10.60;;;6.70;1.00;;;;;;5052172;28;20179;-63
2023/02/13 05:32:14;;;;;;;15.03;10.67;;;6.60;1.00;;;;;;5052917;28;20632;-64
2023/02/13 05:34:40;;;;;;;14.93;12.70;;;6.50;1.00;;;;;;5052886;28;20199;-64
2023/02/13 05:37:05;;;;;;;20.70;11.30;;;6.40;3.70;;;;;;5052614;28;20175;-64
2023/02/13 05:39:31;;;;;;;19.60;13.33;;;6.30;10.00;;;;;;5051079;28;20179;-64
2023/02/13 05:41:56;;;;;;;16.63;11.63;;;6.20;20.70;;;;;;5052398;28;20640;-64
2023/02/13 05:44:22;;;;;;;14.43;11.27;;;6.20;23.80;;;;;;5052538;28;20207;-64
2023/02/13 05:46:48;;;;;;;16.77;13.47;;;6.10;29.90;;;;;;5052627;28;20221;-64
2023/02/13 05:49:14;;;;;;;15.43;12.13;;;6.10;43.80;;;;;;5052266;28;20241;-64
2023/02/13 05:51:41;;;;;;;16.57;10.40;;;6.00;53.90;;;;;;5052314;28;20667;-64
2023/02/13 05:54:07;;;;;;;17.10;12.70;;;5.90;79.10;;;;;;5052157;28;20177;-64
2023/02/13 05:56:32;;;;;;;15.70;11.57;;;5.90;99.90;;;;;;5052357;28;20537;-64
2023/02/13 05:58:58;;;;;;;11.73;10.20;;;5.90;99.90;;;;;;5052280;28;20174;-64
2023/02/13 06:01:24;;;;;;;14.23;10.57;;;5.90;99.90;;;;;;5051920;28;20637;-64
2023/02/13 06:03:50;;;;;;;16.13;12.20;;;5.80;99.90;;;;;;5050689;28;20263;-64
2023/02/13 06:06:16;;;;;;;14.60;11.27;;;5.80;99.90;;;;;;5052110;28;20222;-63
2023/02/13 06:08:42;;;;;;;13.60;12.00;;;5.80;99.90;;;;;;5052053;28;20735;-64
2023/02/13 06:11:08;;;;;;;16.07;12.10;;;5.70;99.90;;;;;;5051626;28;20245;-64
2023/02/13 06:13:34;;;;;;;11.10;10.03;;;5.70;99.90;;;;;;5052194;28;20159;-63
2023/02/13 06:16:00;;;;;;;13.23;11.30;;;5.60;99.90;;;;;;5051759;28;20784;-63
2023/02/13 06:18:25;;;;;;;16.73;11.27;;;5.60;99.90;;;;;;5051897;28;20163;-63
2023/02/13 06:20:51;;;;;;;16.60;13.63;;;5.60;99.90;;;;;;5051713;28;20523;-64
2023/02/13 06:23:17;;;;;;;15.53;12.47;;;5.50;99.90;;;;;;5051810;28;20177;-63
2023/02/13 06:25:42;;;;;;;15.80;12.13;;;5.50;99.90;;;;;;5051556;28;20274;-63
2023/02/13 06:28:08;;;;;;;12.90;11.80;;;5.40;99.90;;;;;;5051551;28;20171;-63
2023/02/13 06:30:34;;;;;;;17.03;13.50;;;5.30;99.90;;;;;;5051372;28;20198;-64
2023/02/13 06:32:59;;;;;;;13.77;12.53;;;5.30;99.90;;;;;;5051771;28;20221;-64
2023/02/13 06:35:25;;;;;;;14.77;11.07;;;5.30;99.90;;;;;;5051632;28;20190;-64
2023/02/13 06:37:51;;;;;;;14.60;12.00;;;5.20;99.90;;;;;;5051511;28;20186;-63
2023/02/13 06:40:17;;;;;;;14.57;11.93;;;5.20;99.90;;;;;;5051387;28;20536;-64
2023/02/13 06:42:44;;;;;;;13.17;11.07;;;5.20;99.90;;;;;;5051457;28;20216;-63
2023/02/13 06:45:10;;;;;;;13.53;11.20;;;5.10;99.90;;;;;;5050085;28;20210;-63
2023/02/13 06:47:39;;;;;;;13.30;11.97;;;5.10;99.90;;;;;;5051531;28;20175;-63
2023/02/13 06:50:05;;;;;;;12.63;11.30;;;5.10;99.90;;;;;;5051872;28;20198;-63
2023/02/13 06:52:31;;;;;;;12.93;10.57;;;5.00;99.90;;;;;;5051511;28;20166;-63
2023/02/13 06:54:56;;;;;;;12.97;11.00;;;5.00;99.90;;;;;;5051373;28;20193;-63
2023/02/13 06:57:22;;;;;;;14.37;11.30;;;5.00;99.90;;;;;;5051496;28;20628;-63
2023/02/13 06:59:47;;;;;;;15.37;10.33;;;5.00;99.90;;;;;;5050467;28;20171;-63
2023/02/13 07:02:13;;;;;;;14.80;11.93;;;5.00;99.90;;;;;;5051534;28;20167;-63
2023/02/13 07:04:39;;;;;;;12.33;11.13;;;5.00;99.90;;;;;;5051341;28;20675;-63
2023/02/13 07:07:05;;;;;;;15.80;11.47;;;5.10;99.90;;;;;;5051818;28;20249;-63
2023/02/13 07:09:31;;;;;;;13.33;11.13;;;5.10;99.90;;;;;;5051340;28;20162;-63
2023/02/13 07:11:57;;;;;;;12.70;11.33;;;5.20;99.90;;;;;;5051191;28;20285;-63
2023/02/13 07:14:23;;;;;;;14.43;11.37;;;5.20;99.90;;;;;;5050216;28;20198;-63
2023/02/13 07:16:48;;;;;;;12.07;10.63;;;5.30;99.90;;;;;;5051603;28;20179;-63
2023/02/13 07:19:14;;;;;;;15.67;11.60;;;5.30;99.90;;;;;;5051101;28;20546;-63
2023/02/13 07:21:39;;;;;;;14.70;12.60;;;5.30;99.90;;;;;;5053498;28;20213;-63
2023/02/13 07:24:05;;;;;;;12.20;10.40;;;5.40;99.90;;;;;;5055269;28;20174;-63
2023/02/13 07:26:31;;;;;;;17.33;12.63;;;5.40;99.90;;;;;;5053843;28;20178;-64
2023/02/13 07:28:57;;;;;;;13.83;10.90;;;5.50;99.90;;;;;;5055216;28;20632;-63
2023/02/13 07:31:22;;;;;;;12.93;11.43;;;5.50;99.90;;;;;;5054934;28;20198;-63
2023/02/13 07:33:48;;;;;;;16.50;12.27;;;5.60;99.90;;;;;;5054965;28;20167;-63
2023/02/13 07:36:14;;;;;;;18.23;12.27;;;5.60;99.90;;;;;;5054876;28;20195;-63
2023/02/13 07:38:40;;;;;;;17.13;11.03;;;5.70;99.90;;;;;;5054933;28;20596;-63
2023/02/13 07:41:05;;;;;;;16.67;12.63;;;5.70;99.90;;;;;;5054636;28;20182;-63
2023/02/13 07:43:31;;;;;;;16.63;12.50;;;5.70;99.90;;;;;;5054765;28;20540;-64
2023/02/13 07:45:58;;;;;;;14.13;11.80;;;5.80;99.90;;;;;;5107514;22;20242;-63
2023/02/13 07:48:26;;;;;;;15.40;11.80;;;5.90;99.90;;;;;;5055476;28;20214;-63
2023/02/13 07:50:52;;;;;;;12.90;11.60;;;5.90;99.90;;;;;;5055416;28;20232;-63
2023/02/13 07:53:18;;;;;;;17.40;12.57;;;6.00;99.90;;;;;;5055489;28;20170;-63
2023/02/13 07:55:44;;;;;;;16.87;13.10;;;6.20;99.90;;;;;;5055721;28;20690;-63
2023/02/13 07:58:09;;;;;;;21.50;11.97;;;6.60;99.90;;;;;;5056347;28;20675;-63
2023/02/13 08:00:35;;;;;;;16.47;11.50;;;7.00;99.90;;;;;;5054948;28;20179;-63
2023/02/13 08:03:01;;;;;;;14.10;12.63;;;7.40;99.90;;;;;;5055616;28;20166;-64
2023/02/13 08:05:28;;;;;;;18.07;11.30;;;7.90;99.90;;;;;;5055863;28;20203;-63
2023/02/13 08:07:53;;;;;;;13.43;11.30;;;8.30;99.90;;;;;;5054698;28;20171;-64
2023/02/13 08:13:05;;;;;;;14.17;10.57;;;9.00;99.90;;;;;;5054933;28;20549;-63
2023/02/13 08:15:31;;;;;;;10.43;9.43;;;9.50;99.90;;;;;;5054269;28;20186;-64
2023/02/13 08:17:56;;;;;;;11.73;10.60;;;9.70;17.60;;;;;;5054302;28;20537;-64
2023/02/13 08:20:22;;;;;;;9.80;9.00;;;10.10;1.00;;;;;;5053949;28;20262;-64
2023/02/13 08:22:48;;;;;;;10.97;8.77;;;10.30;1.00;;;;;;5054036;28;20660;-64
2023/02/13 08:25:14;;;;;;;10.60;9.50;;;10.50;1.00;;;;;;5053994;28;20199;-64
2023/02/13 08:27:40;;;;;;;12.07;9.33;;;10.80;1.00;;;;;;5054054;28;20174;-64
2023/02/13 08:30:07;;;;;;;10.53;9.10;;;11.20;99.90;;;;;;5053763;28;20682;-64
2023/02/13 08:32:32;;;;;;;10.13;9.10;;;11.40;1.00;;;;;;5052709;28;20171;-64
2023/02/13 08:34:58;;;;;;;9.67;8.53;;;11.50;1.00;;;;;;5053826;28;20281;-64
2023/02/13 08:37:24;;;;;;;9.57;8.67;;;11.60;99.90;;;;;;5053855;28;20182;-63
2023/02/13 08:39:49;;;;;;;8.77;7.93;;;11.60;96.60;;;;;;5053668;28;20667;-63
2023/02/13 08:42:15;;;;;;;7.80;7.07;;;11.90;1.00;;;;;;5053965;28;20178;-63
2023/02/13 08:44:41;;;;;;;8.27;7.47;;;11.90;99.90;;;;;;5053723;28;20560;-63
2023/02/13 08:47:08;;;;;;;8.00;7.20;;;12.00;81.70;;;;;;5053884;28;20174;-63
2023/02/13 08:49:34;;;;;;;8.47;7.70;;;12.10;1.00;;;;;;5053522;28;20181;-63
2023/02/13 08:52:00;;;;;;;8.53;7.77;;;12.00;1.00;;;;;;5053578;28;20289;-63
2023/02/13 08:54:26;;;;;;;8.30;7.50;;;12.10;24.10;;;;;;5053640;28;20213;-63
2023/02/13 08:56:53;;;;;;;8.83;7.93;;;12.10;1.00;;;;;;5053492;28;20628;-63
2023/02/13 08:59:18;;;;;;;8.30;7.30;;;12.10;1.00;;;;;;5053238;28;20258;-63
2023/02/13 09:01:44;;;;;;;7.63;6.90;;;12.20;1.00;;;;;;5052627;28;20285;-63
2023/02/13 09:04:10;;;;;;;8.10;7.30;;;12.30;1.00;;;;;;5053302;28;20655;-63
2023/02/13 09:06:36;;;;;;;7.70;7.00;;;12.40;1.00;;;;;;5053227;28;20197;-63
2023/02/13 09:09:03;;;;;;;9.27;8.30;;;12.30;1.00;;;;;;5053252;28;20178;-63
2023/02/13 09:11:29;;;;;;;8.60;7.73;;;12.10;1.00;;;;;;5052756;28;20201;-63
2023/02/13 09:13:54;;;;;;;7.80;7.10;;;12.20;1.00;;;;;;5052908;28;20179;-63
2023/02/13 09:16:20;;;;;;;8.87;8.07;;;12.50;1.00;;;;;;5052998;28;20187;-64
2023/02/13 09:18:47;;;;;;;11.13;7.50;;;12.60;1.00;;;;;;5052861;28;20197;-64
2023/02/13 09:21:13;;;;;;;8.50;7.60;;;12.90;1.00;;;;;;5052773;28;20640;-64
2023/02/13 09:23:40;;;;;;;9.93;7.63;;;13.10;1.00;;;;;;5052791;28;20213;-64
2023/02/13 09:26:09;;;;;;;7.13;6.50;;;13.30;1.00;;;;;;5052738;28;20682;-64
2023/02/13 09:28:36;;;;;;;7.73;6.73;;;13.60;1.00;;;;;;5051688;28;20547;-64
2023/02/13 09:31:16;;;;;;;8.43;7.63;;;13.70;1.00;;;;;;5052334;28;20194;-64
2023/02/13 09:33:43;;;;;;;13.60;8.27;;;13.70;1.00;;;;;;5052623;28;20576;-64
2023/02/13 09:36:13;;;;;;;8.47;7.60;;;13.90;1.00;;;;;;5052488;28;20198;-64
2023/02/13 09:38:42;;;;;;;8.70;7.33;;;13.90;1.00;;;;;;5052609;28;20167;-64
2023/02/13 09:41:16;;;;;;;8.20;7.40;;;13.90;1.00;;;;;;5052384;28;20202;-64
2023/02/13 09:43:44;;;;;;;7.80;7.10;;;13.90;1.00;;;;;;5050975;28;20227;-64
2023/02/13 09:46:16;;;;;;;8.10;7.30;;;13.90;1.00;;;;;;5052049;28;20217;-64
2023/02/13 09:48:44;;;;;;;8.50;7.27;;;13.80;1.00;;;;;;5052397;28;20163;-64
2023/02/13 09:51:16;;;;;;;8.30;6.27;;;13.90;1.00;;;;;;5052063;28;20209;-64
2023/02/13 09:53:54;;;;;;;9.37;7.47;;;14.00;1.00;;;;;;5052500;28;20186;-63
2023/02/13 09:56:41;;;;;;;10.07;7.80;;;13.90;1.00;;;;;;5052379;28;20182;-63
2023/02/13 09:59:19;;;;;;;7.70;6.90;;;13.90;1.00;;;;;;5052161;28;20178;-64
2023/02/13 10:01:47;;;;;;;7.53;6.87;;;13.90;1.00;;;;;;5050241;28;20178;-64
2023/02/13 10:04:29;;;;;;;6.90;6.20;;;14.10;1.00;;;;;;5051983;28;20174;-64
2023/02/13 10:07:13;;;;;;;6.97;6.37;;;14.20;1.00;;;;;;5052154;28;20648;-64
2023/02/13 10:09:54;;;;;;;8.30;7.30;;;14.30;1.00;;;;;;5051619;28;20174;-64
2023/02/13 10:12:40;;;;;;;8.50;6.47;;;14.40;1.00;;;;;;5051948;28;20569;-64
2023/02/13 10:15:21;;;;;;;7.37;6.67;;;14.70;1.00;;;;;;5051964;28;20190;-64
2023/02/13 10:18:13;;;;;;;8.43;7.27;;;14.80;1.00;;;;;;5051888;28;20198;-64
2023/02/13 10:20:42;;;;;;;7.00;6.27;;;14.90;1.00;;;;;;5023298;28;20183;-64
2023/02/13 10:23:23;;;;;;;6.80;6.17;;;15.10;1.00;;;;;;5052147;28;20198;-63
2023/02/13 10:25:57;;;;;;;7.20;6.47;;;15.30;1.00;;;;;;5051996;28;20687;-64
2023/02/13 10:28:45;;;;;;;9.23;6.93;;;15.30;1.00;;;;;;5051702;28;20171;-63
2023/02/13 10:31:22;;;;;;;6.87;6.27;;;15.10;1.00;;;;;;5051292;28;20211;-64
2023/02/13 10:33:54;;;;;;;7.03;6.43;;;15.20;1.00;;;;;;5051682;28;20185;-63
2023/02/13 10:36:19;;;;;;;7.87;7.03;;;15.10;1.00;;;;;;5051695;28;20190;-63
2023/02/13 10:38:56;;;;;;;7.00;6.27;;;15.20;1.00;;;;;;5051428;28;20174;-64
2023/02/13 10:41:21;;;;;;;7.20;6.60;;;15.30;1.00;;;;;;5050120;28;20665;-63
2023/02/13 10:44:11;;;;;;;7.20;6.50;;;15.20;1.00;;;;;;5051352;28;20171;-64
2023/02/13 10:46:59;;;;;;;8.57;7.47;;;15.40;1.00;;;;;;5051544;28;20194;-64
2023/02/13 10:49:51;;;;;;;7.43;6.77;;;15.50;1.00;;;;;;5051367;28;20181;-63
2023/02/13 10:52:30;;;;;;;7.80;7.10;;;15.50;99.90;;;;;;5022649;28;20210;-63
2023/02/13 10:55:04;;;;;;;7.67;6.50;;;15.40;99.90;;;;;;5051026;28;20231;-64
2023/02/13 10:57:52;;;;;;;6.73;6.03;;;15.20;99.90;;;;;;5051311;28;20182;-65
2023/02/13 11:00:31;;;;;;;7.30;6.60;;;15.10;99.90;;;;;;5050153;28;20202;-64
2023/02/13 11:02:58;;;;;;;8.47;7.23;;;15.20;99.90;;;;;;5051628;28;20674;-64
2023/02/13 11:05:36;;;;;;;10.27;7.07;;;15.30;99.90;;;;;;5051246;28;20191;-64
2023/02/13 11:08:02;;;;;;;7.97;6.63;;;15.50;99.90;;;;;;5051109;28;20593;-64
2023/02/13 11:10:27;;;;;;;7.37;6.37;;;15.80;99.90;;;;;;5050974;28;20520;-63
2023/02/13 11:12:53;;;;;;;8.80;6.67;;;16.10;99.90;;;;;;5051346;28;20225;-64
2023/02/13 11:15:30;;;;;;;8.50;7.20;;;16.30;99.90;;;;;;5051432;28;20201;-64
2023/02/13 11:18:02;;;;;;;7.23;6.53;;;16.40;99.90;;;;;;5051036;28;20244;-63
2023/02/13 11:20:43;;;;;;;6.60;6.00;;;16.40;99.90;;;;;;5050476;28;20179;-64
2023/02/13 11:23:34;;;;;;;7.23;6.53;;;16.50;99.90;;;;;;5051197;28;20655;-63
2023/02/13 11:26:06;;;;;;;7.07;6.50;;;16.70;99.90;;;;;;5051067;28;20218;-63
2023/02/13 11:28:37;;;;;;;7.03;6.43;;;16.70;99.90;;;;;;5049777;28;20269;-63
2023/02/13 11:31:12;;;;;;;6.87;6.27;;;16.70;99.90;;;;;;5050634;28;20276;-64
2023/02/13 11:33:38;;;;;;;6.93;6.20;;;16.90;99.90;;;;;;5050925;28;20718;-63
2023/02/13 11:36:12;;;;;;;6.43;5.73;;;17.20;99.90;;;;;;5050890;28;20427;-64
2023/02/13 11:38:37;;;;;;;6.97;5.43;;;17.50;99.90;;;;;;5050865;28;20258;-64
2023/02/13 11:41:09;;;;;;;6.23;5.73;;;17.70;99.90;;;;;;5050686;28;20317;-63
2023/02/13 11:43:52;;;;;;;6.67;5.93;;;17.80;99.90;;;;;;5050946;28;20436;-64
2023/02/13 11:46:23;;;;;;;6.50;5.90;;;17.80;99.90;;;;;;5050685;28;20225;-63
2023/02/13 11:48:55;;;;;;;6.17;5.67;;;17.90;99.90;;;;;;5050800;28;20715;-63
2023/02/13 11:51:34;;;;;;;7.90;6.10;;;17.90;99.90;;;;;;5050389;28;20206;-64
2023/02/13 11:54:00;;;;;;;6.67;5.70;;;17.90;99.90;;;;;;5050739;28;20175;-63
2023/02/13 11:56:25;;;;;;;7.63;6.37;;;18.00;99.90;;;;;;5050718;28;20201;-63
2023/02/13 11:59:01;;;;;;;6.10;5.53;;;18.10;99.90;;;;;;5050609;28;20532;-64
2023/02/13 12:01:28;;;;;;;6.43;5.87;;;18.40;99.90;;;;;;5050031;28;20186;-64
2023/02/13 12:04:04;;;;;;;6.73;6.10;;;18.50;99.90;;;;;;5050640;28;20543;-63
2023/02/13 12:06:38;;;;;;;5.97;5.43;;;18.60;99.90;;;;;;5049739;28;20203;-63
2023/02/13 12:09:09;;;;;;;6.05;5.53;;;18.70;99.90;;;;;;5054357;28;20528;-63
2023/02/13 12:11:48;;;;;;;5.55;5.15;;;18.70;99.90;;;;;;5054121;28;20234;-64
2023/02/13 12:14:20;;;;;;;6.13;5.53;;;18.80;99.90;;;;;;5054024;28;20170;-64
2023/02/13 12:16:59;;;;;;;6.50;5.85;;;18.70;99.90;;;;;;5054307;28;20175;-64
2023/02/13 12:19:38;;;;;;;7.07;5.90;;;18.50;99.90;;;;;;5053930;28;20750;-64
2023/02/13 12:22:35;;;;;;;5.93;5.33;;;18.60;99.90;;;;;;5054037;28;20542;-65
2023/02/13 12:25:03;;;;;;;6.90;6.17;;;18.70;99.90;;;;;;5053935;28;20198;-65
2023/02/13 12:28:10;;;;;;;5.30;4.80;;;18.60;99.90;;;;;;5054096;28;20175;-64
2023/02/13 12:31:04;;;;;;;5.37;4.90;;;18.50;99.90;;;;;;5053477;28;20230;-64
2023/02/13 12:33:43;;;;;;;6.67;4.90;;;18.50;99.90;;;;;;5053813;28;20183;-63
2023/02/13 12:36:23;;;;;;;5.03;4.57;;;18.70;99.90;;;;;;5053637;28;20339;-64
2023/02/13 12:39:04;;;;;;;5.40;4.60;;;18.80;99.90;;;;;;5053657;28;20202;-64
2023/02/13 12:41:56;;;;;;;7.78;4.55;;;19.00;99.90;;;;;;5053420;28;20683;-63
2023/02/13 12:44:40;;;;;;;5.28;4.78;;;19.40;99.90;;;;;;5053401;28;20177;-63
2023/02/13 12:47:20;;;;;;;5.18;4.68;;;19.30;99.90;;;;;;5053652;28;20178;-63
2023/02/13 12:50:04;;;;;;;6.00;4.90;;;19.40;99.90;;;;;;5053169;28;20259;-64
2023/02/13 12:53:11;;;;;;;7.32;5.18;;;19.30;99.90;;;;;;5053610;28;20705;-63
2023/02/13 12:56:08;;;;;;;5.30;4.80;;;19.20;99.90;;;;;;5053171;28;20186;-63
2023/02/13 12:59:00;;;;;;;5.07;4.68;;;19.00;99.90;;;;;;5053367;28;20171;-64
2023/02/13 13:01:44;;;;;;;5.37;4.23;;;19.10;99.90;;;;;;5052081;28;20202;-63
2023/02/13 13:04:31;;;;;;;5.60;5.03;;;19.20;99.90;;;;;;5052939;28;20167;-63
2023/02/13 13:07:03;;;;;;;5.60;5.10;;;19.20;99.90;;;;;;5053240;28;20671;-64
2023/02/13 13:09:29;;;;;;;5.80;5.18;;;19.30;99.90;;;;;;5052962;28;20192;-64
2023/02/13 13:12:16;;;;;;;5.25;4.45;;;19.30;99.90;;;;;;5052949;28;20542;-64
2023/02/13 13:15:10;;;;;;;5.15;4.70;;;19.60;99.90;;;;;;5052967;28;20248;-64
2023/02/13 13:17:36;;;;;;;5.22;4.72;;;20.00;99.90;;;;;;5047368;28;20284;-64
2023/02/13 13:20:13;;;;;;;7.45;5.00;;;20.10;99.90;;;;;;5051817;28;20651;-64
2023/02/13 13:23:14;;;;;;;4.75;4.40;;;20.00;99.90;;;;;;5052739;28;20193;-64
2023/02/13 13:26:11;;;;;;;5.50;5.03;;;20.20;99.90;;;;;;5044320;28;20205;-64
2023/02/13 13:28:40;;;;;;;6.22;5.68;;;20.20;99.90;;;;;;5044218;28;20187;-64
2023/02/13 13:31:06;;;;;;;5.45;5.05;;;20.00;99.90;;;;;;5052347;28;20655;-65
2023/02/13 13:33:34;;;;;;;5.35;4.90;;;20.00;99.90;;;;;;5052605;28;20171;-64
2023/02/13 13:36:08;;;;;;;5.32;4.93;;;20.00;99.90;;;;;;5052366;28;20773;-63
2023/02/13 13:38:52;;;;;;;5.57;5.18;;;20.00;99.90;;;;;;5051053;28;20181;-63
2023/02/13 13:41:39;;;;;;;4.88;4.57;;;19.90;99.90;;;;;;5052145;28;20546;-63
2023/02/13 13:44:17;;;;;;;4.38;4.07;;;20.10;99.90;;;;;;5052452;28;20607;-63
2023/02/13 13:47:04;;;;;;;4.28;4.00;;;20.30;99.90;;;;;;5052996;28;20182;-63
2023/02/13 13:49:51;;;;;;;4.60;4.30;;;20.20;99.90;;;;;;5052005;28;20182;-64
2023/02/13 13:52:26;;;;;;;4.80;4.35;;;20.00;99.90;;;;;;5052137;28;20682;-63